Etusivu
METAR-TAF:

METAR-TAF

Lentoasemat :

Førde, Norja

Leveyspiiri: 61-27N, Pituuspiiri: 005-52E, korkeus merenpinnasta: 150 m

Tämänhetkinen sää

Tämä raportti tehtiin 22 minuuttia sitten, kello 20.20 UTC
Tuuli 3 kn lounaasta, vaihdellen etelän ja lännen välillä
Lämpötila 13°C
Kosteus 94%
Ilmanpaine 1004 hPa
Näkyvyys 10 km tai enemmän
Muutamia pilviä 1600 ft:n korkeudessa
Hajanaisia pilviä 2800 ft:n korkeudessa
Hajonneita pilviä 3200 ft:n korkeudessa
heikkoa sadetta

METAR: ENBL 152020Z 22003KT 170V260 9999 -RA FEW016 SCT028 BKN032 13/12 Q1004

Aika: 22:42 (20:42 UTC)


TAF: puuttuu

Säähavainnot ja -ennusteet yli 4000 lentoasemalta (METAR- ja TAF-raportit).

Käytössä olevat sääasemat on merkitty karttaan keltaisilla ja punaisilla pisteillä.

Aseta hiiri pisteen päälle nähdäksesi sääaseman nimen.

Klikkaa sitten nähdäksesi säähavainnot ja -ennusteet.

Kartan vaihtaminen: klikkaa mustalla rastilla varustettuja vihreitä pisteitä, niin voit zoomata sisään; viivalla varustettua vihreää pistettä, niin voit zoomata ulos tai vihreitä nuolia, niin pääset viereisille kartoille.


METAR-TAF: